x

Virginia Beach 64 Nm East Of Virginia Beach, Va (44014) Wave Buoy

9:50am - Thu 30th Oct 2014 All times are EDT. -4 hours from GMT.

  • Sig Wave height 3.6ft
  • Swell Direction
  • Peak Period 5s
  • Average Period 4s
  • Wind
    18mph, 22mph gusts
  • Sea Temp 67°f
  • Air Temp 62°f
  • Sea Pressure 1015.3mb
  • Virginia Beach 64 Nm East Of Virginia Beach, Va
  • Virginia Beach 64 Nm East Of Virginia Beach, Va

More Historic Weather Station data

Upgrade to MSW Pro to gain access to the past 30 days of data for over 8000 Wavebouys and Weather Stations around the globe.

Join Pro

Comparision Forecast

View Surf forecast
   
Thu 10/30 9:50am 3.5ft 5s 4s 18 22 mph 1015.3mb 67f 62f
8:50am 4ft 5s 4s 20 25 mph 1014.7mb 67f 61f
7:50am 4.5ft 6s 4s 20 25 mph 1014.5mb 67f 60f
6:50am 4.5ft 6s 5s 22 27 mph 1014.1mb 67f 59f
5:50am 5ft 6s 5s 20 25 mph 1014.3mb 67f 58f
4:50am 6ft 6s 5s 22 27 mph 1013.8mb 67f 58f
3:50am 5.5ft 6s 5s 22 27 mph 1013mb 67f 60f
2:50am 5.5ft 6s 5s 22 27 mph 1013.4mb 67f 60f
1:50am 5ft 5s 4s 22 27 mph 1012.8mb 67f 63f
12:50am 4.5ft 4s 4s 22 29 mph 1013mb 67f 62f
Wed 10/29 11:50pm 3ft 6s 4s 22 27 mph 1012.6mb 67f 64f
10:50pm 3.5ft 7s 5s 20 25 mph 1012.5mb 67f 65f
9:50pm 3.5ft 7s 5s 11 13 mph 1012.8mb 67f 69f
8:50pm 3ft 6s 5s 11 13 mph 1012.7mb 67f 69f
7:50pm 3ft 6s 5s 11 13 mph 1013mb 67f 69f
6:50pm 3ft 5s 4s 13
mph
1012.8mb 67f 69f
5:50pm 3ft 5s 4s 13 16 mph 1012.5mb 67f 69f
4:50pm 3ft 5s 4s 16 18 mph 1012.4mb 67f 69f
3:50pm 2.5ft 5s 4s 13 16 mph 1012.7mb 67f 69f
2:50pm 2.5ft 5s  -  13 16 mph 1013mb 67f 69f
1:50pm 3.5ft 5s 4s 16
mph
1013.6mb 67f 69f
12:50pm 3.5ft 5s 4s 16 18 mph 1014.6mb 67f 69f
11:50am 3.5ft 4s 4s 20 22 mph 1015.2mb 67f 69f
10:50am 3ft 5s 4s 18 22 mph 1015.6mb 67f 69f
9:50am 3ft 5s 4s 20 22 mph 1016.2mb 67f 69f
8:50am 3ft 5s 4s 18 20 mph 1016.6mb 67f 69f
7:50am 3ft 5s 4s 16 18 mph 1016.8mb 67f 69f
6:50am 3.5ft 4s 4s 16 18 mph 1016.7mb 66f 69f
5:50am 3ft 4s 4s 18 20 mph 1016.6mb 66f 69f
4:50am 3ft 4s 4s 16 18 mph 1016.6mb 67f 69f
3:50am 3ft 4s 4s 16 18 mph 1016.7mb 67f 69f
2:50am 3ft 4s 4s 16 18 mph 1016.9mb 67f 70f
1:50am 2.5ft 4s 4s 18 20 mph 1016.8mb 67f 70f
12:50am 2.5ft 4s 4s 18 20 mph 1017mb 66f 69f
Tue 10/28 11:50pm 2ft 4s 4s 16 18 mph 1017.5mb 66f 69f
10:50pm 2.5ft 4s 4s 13 16 mph 1017.9mb 66f 69f
9:50pm 2ft 4s 4s 13 18 mph 1018.1mb 66f 69f
8:50pm 2.5ft 4s 4s 13
mph
1018.3mb 66f 69f
7:50pm 2ft 4s 4s 13 18 mph 1018.2mb 67f 70f
6:50pm 2ft 3s 4s 13 16 mph 1018.2mb 67f 70f
5:50pm 2ft 3s 4s 16 18 mph 1018mb 67f 70f
4:50pm 1.6ft 3s 4s 13 16 mph 1018.2mb 67f 70f
3:50pm 1.6ft 3s 4s 11 13 mph 1018.3mb 67f 69f
2:50pm 1.6ft 3s 4s 13
mph
1018.4mb 67f 69f
1:50pm 1.6ft 7s 4s 11
mph
1019.2mb 67f 69f
12:50pm 1.6ft 8s 4s 11
mph
1019.9mb 66f 68f
11:50am 1.3ft 8s 4s 11 13 mph 1020.3mb 66f 68f
10:50am 1.3ft 7s 4s 11 13 mph 1020.5mb 66f 68f
9:50am 1.3ft 9s 4s 11 13 mph 1020.6mb 66f 68f
8:50am 1.3ft 8s 4s 11 13 mph 1020.8mb 66f 67f
7:50am 1.3ft 8s 4s 9 11 mph 1020.2mb 66f 67f
6:50am 1.3ft 8s 5s 9 11 mph 1020.1mb 66f 67f
5:50am 1.6ft 8s 5s 9 11 mph 1020mb 66f 67f
4:50am 1.6ft 8s 4s 9 11 mph 1019.6mb 66f 67f
3:50am 1.6ft 7s 5s 9 11 mph 1019.6mb 66f 67f
2:50am 1.6ft 8s 5s 9 11 mph 1019.8mb 66f 67f
1:50am 1.6ft 8s 5s 11 13 mph 1019.3mb 66f 67f
12:50am 1.6ft 6s 5s 11
mph
1019.3mb 66f 67f
Mon 10/27 11:50pm 1.6ft 6s 5s 9
mph
1019.3mb 66f 66f
10:50pm 1.6ft 6s 5s 9 11 mph 1019.4mb 66f 65f
9:50pm 2ft 6s 5s 9 11 mph 1019.5mb 66f 65f
8:50pm 2ft 6s 5s 7 9 mph 1019.2mb 66f 64f
7:50pm 2ft 5s 5s 7 9 mph 1019.3mb 66f 64f
6:50pm 2ft 8s 5s 4 7 mph 1019.2mb 66f 64f
5:50pm 2ft 5s 5s 2
mph
1019.1mb 67f 65f
4:50pm 2.5ft 5s 4s  -  2 mph 1018.7mb 67f 65f
3:50pm 2.5ft 5s 5s 4 7 mph 1018.6mb 67f 64f
2:50pm 2.5ft 5s 5s 7
mph
1018.6mb 66f 64f
1:50pm 3ft 5s 5s 9 11 mph 1018.8mb 66f 64f
12:50pm 3ft 5s 5s 9 11 mph 1019mb 66f 64f
11:50am 3ft 6s 5s 9 11 mph 1019.2mb 66f 64f
10:50am 3ft 5s 5s 11 13 mph 1019mb 66f 65f
9:50am 3.5ft 5s 5s 11 16 mph 1018.8mb 66f 65f
8:50am 3ft 5s 4s 13 16 mph 1018.2mb 66f 65f
7:50am 2.5ft 4s 4s 13 16 mph 1017.1mb 66f 65f
6:50am 2.5ft 4s 4s 16 18 mph 1016.5mb 66f 65f
5:50am 2.5ft 3s 4s 13 18 mph 1015.9mb 66f 65f
4:50am 2.5ft 3s 4s 16 18 mph 1015.1mb 66f 65f
3:50am 2ft 5s 4s 13 18 mph 1014.4mb 66f 67f
2:50am 2ft 5s 4s 11 13 mph 1014.1mb 66f 67f
1:50am 2.5ft 5s 4s 7
mph
1013.8mb 66f 66f
12:50am 2.5ft 5s 4s 7
mph
1013.3mb 66f 66f
Sun 10/26 11:50pm 2.5ft 5s 4s 9
mph
1013.1mb 66f 66f
10:50pm 3ft 5s 4s 7
mph
1012.8mb 66f 67f
9:50pm 3.5ft 5s 5s 7 9 mph 1012.3mb 66f 67f
8:50pm 3.5ft 5s 5s 9 11 mph 1011.7mb 66f 67f
7:50pm 3.5ft 6s 4s 13 16 mph 1011mb 66f 68f
6:50pm 3.5ft 5s 4s 20 25 mph 1009.3mb 66f 67f
5:50pm 4ft 6s 4s 20 22 mph 1009.1mb 66f 67f
4:50pm 4.5ft 6s 5s 18 22 mph 1009mb 66f 66f
3:50pm 5.5ft 6s 5s 22 25 mph 1008.4mb 66f 66f